Terminal Aerodrome Forecast
Issued by NWS Louisville, KY

Home | Current Version | Previous Version | Text Only | Print | Product List | Glossary On
Versions: 1 2 3 4 5 6 7 8 9 10 11 12 13 14 15 16 17
148
FTUS43 KLMK 251720
TAFBWG
TAF
KBWG 251720Z 2518/2618 VRB03KT P6SM FEW250
     FM260700 00000KT 5SM BR FEW250
     FM261100 00000KT 3SM BR FEW250
      TEMPO 2611/2613 1/2SM FG
     FM261300 00000KT P6SM FEW250=

USA.gov is the U.S. government's official web portal to all federal, state and local government web resources and services.